Terminal Aerodrome Forecast
Issued by NWS Wilmington, OH

Current Version | Previous Version | Graphics & Text | Print | Product List | Glossary On
Versions: 1 2 3 4 5 6 7 8 9 10 11 12 13 14 15 16 17 18 19 20 21 22 23 24 25 26 27 28 29 30
000
FTUS41 KILN 151131
TAFDAY
TAF
KDAY 151131Z 1512/1612 00000KT 2SM -FZDZ BR SCT005 BKN014
     FM151500 07006KT P6SM FEW015 BKN040
     FM160000 09004KT P6SM SCT012 OVC050
     FM160400 08004KT 3SM BR VCSH OVC010=

USA.gov is the U.S. government's official web portal to all federal, state and local government web resources and services.